createdAt,value
2018-07-25T00:00:42.829Z,97.91
2018-07-25T00:01:42.816Z,97.91
2018-07-25T00:02:42.799Z,98.20
2018-07-25T00:03:42.784Z,97.81
2018-07-25T00:04:42.769Z,98.10
2018-07-25T00:05:42.755Z,98.87
2018-07-25T00:06:42.742Z,98.10
2018-07-25T00:07:42.725Z,97.67
2018-07-25T00:08:42.710Z,98.63
2018-07-25T00:09:42.695Z,98.54
2018-07-25T00:10:42.678Z,98.63
2018-07-25T00:11:42.664Z,98.72
2018-07-25T00:12:42.649Z,98.54
2018-07-25T00:13:42.633Z,98.63
2018-07-25T00:14:42.624Z,98.44
2018-07-25T00:15:42.602Z,98.72
2018-07-25T00:16:42.589Z,98.54
2018-07-25T00:17:42.573Z,98.34
2018-07-25T00:18:42.556Z,99.02
2018-07-25T00:19:42.542Z,98.54
2018-07-25T00:20:42.527Z,98.63
2018-07-25T00:21:42.515Z,98.82
2018-07-25T00:22:42.495Z,98.24
2018-07-25T00:23:42.483Z,97.96
2018-07-25T00:24:42.466Z,98.24
2018-07-25T00:25:42.450Z,98.44
2018-07-25T00:26:42.434Z,98.05
2018-07-25T00:27:42.420Z,98.34
2018-07-25T00:28:42.405Z,98.72
2018-07-25T00:29:43.140Z,98.54
2018-07-25T00:30:42.374Z,98.82
2018-07-25T00:31:42.358Z,98.72
2018-07-25T00:32:42.346Z,98.72
2018-07-25T00:33:42.327Z,98.63
2018-07-25T00:34:42.310Z,98.72
2018-07-25T00:35:42.296Z,98.63
2018-07-25T00:36:42.281Z,98.72
2018-07-25T00:37:42.264Z,98.44
2018-07-25T00:38:42.249Z,98.63
2018-07-25T00:39:42.233Z,98.92
2018-07-25T00:40:42.218Z,98.72
2018-07-25T00:41:42.203Z,99.02
2018-07-25T00:42:42.190Z,98.72
2018-07-25T00:43:42.171Z,98.82
2018-07-25T00:44:42.156Z,98.44
2018-07-25T00:45:42.142Z,98.54
2018-07-25T00:46:42.125Z,98.72
2018-07-25T00:47:42.117Z,98.44
2018-07-25T00:48:42.094Z,98.54
2018-07-25T00:49:42.079Z,98.72
2018-07-25T00:50:42.062Z,98.82
2018-07-25T00:51:42.053Z,98.63
2018-07-25T00:52:42.037Z,98.72
2018-07-25T00:53:42.018Z,99.02
2018-07-25T00:54:42.000Z,98.49
2018-07-25T00:55:42.736Z,99.21
2018-07-25T00:56:41.974Z,98.97
2018-07-25T00:57:41.955Z,98.97
2018-07-25T00:58:41.939Z,99.06
2018-07-25T00:59:41.923Z,99.64
2018-07-25T01:00:43.409Z,99.84
2018-07-25T01:01:41.897Z,99.26
2018-07-25T01:02:41.875Z,99.35
2018-07-25T01:03:41.860Z,99.74
2018-07-25T01:04:41.844Z,99.54
2018-07-25T01:05:41.829Z,98.77
2018-07-25T01:06:41.813Z,99.02
2018-07-25T01:07:41.797Z,99.30
2018-07-25T01:08:41.782Z,99.26
2018-07-25T01:09:41.766Z,99.74
2018-07-25T01:10:41.750Z,99.54
2018-07-25T01:11:41.735Z,99.84
2018-07-25T01:12:41.720Z,99.64
2018-07-25T01:13:41.705Z,98.87
2018-07-25T01:14:41.687Z,99.26
2018-07-25T01:15:41.672Z,99.74
2018-07-25T01:16:41.656Z,99.54
2018-07-25T01:17:41.642Z,99.44
2018-07-25T01:18:41.624Z,99.64
2018-07-25T01:19:41.610Z,99.35
2018-07-25T01:20:41.595Z,99.44
2018-07-25T01:21:41.578Z,99.74
2018-07-25T01:22:41.562Z,99.74
2018-07-25T01:23:41.547Z,99.93
2018-07-25T01:24:41.531Z,99.84
2018-07-25T01:25:41.518Z,99.26
2018-07-25T01:26:41.499Z,98.87
2018-07-25T01:27:41.484Z,99.06
2018-07-25T01:28:41.473Z,99.26
2018-07-25T01:29:41.453Z,99.35
2018-07-25T01:30:41.437Z,99.16
2018-07-25T01:31:41.424Z,99.54
2018-07-25T01:32:41.408Z,99.44
2018-07-25T01:33:41.390Z,99.26
2018-07-25T01:34:41.377Z,98.77
2018-07-25T01:35:41.359Z,99.21
2018-07-25T01:36:41.342Z,99.44
2018-07-25T01:37:41.328Z,99.44
2018-07-25T01:38:41.310Z,99.54
2018-07-25T01:39:41.295Z,99.84
2018-07-25T01:40:41.279Z,99.44
2018-07-25T01:41:41.265Z,99.84
2018-07-25T01:42:41.250Z,99.74
2018-07-25T01:43:41.233Z,99.64
2018-07-25T01:44:41.218Z,99.74
2018-07-25T01:45:41.202Z,99.26
2018-07-25T01:46:41.186Z,99.84
2018-07-25T01:47:41.175Z,99.44
2018-07-25T01:48:41.155Z,99.74
2018-07-25T01:49:41.139Z,99.84
2018-07-25T01:50:41.124Z,99.64
2018-07-25T01:51:41.109Z,99.64
2018-07-25T01:52:41.094Z,99.44
2018-07-25T01:53:41.075Z,99.99
2018-07-25T01:54:41.059Z,99.84
2018-07-25T01:55:41.043Z,99.84
2018-07-25T01:56:41.027Z,99.44
2018-07-25T01:57:41.011Z,99.44
2018-07-25T01:58:40.995Z,99.74
2018-07-25T01:59:40.978Z,99.16
2018-07-25T02:00:40.965Z,99.26
2018-07-25T02:01:40.948Z,99.54
2018-07-25T02:02:40.930Z,99.64
2018-07-25T02:03:40.918Z,99.44
2018-07-25T02:04:40.901Z,99.06
2018-07-25T02:05:40.886Z,99.64
2018-07-25T02:06:40.868Z,99.44
2018-07-25T02:07:40.857Z,99.64
2018-07-25T02:08:40.837Z,99.93
2018-07-25T02:09:40.822Z,99.93
2018-07-25T02:10:40.805Z,99.99
2018-07-25T02:11:40.789Z,99.93
2018-07-25T02:12:40.773Z,99.64
2018-07-25T02:13:40.757Z,99.74
2018-07-25T02:14:40.740Z,99.93
2018-07-25T02:15:40.725Z,99.54
2018-07-25T02:16:40.709Z,99.54
2018-07-25T02:17:40.693Z,99.84
2018-07-25T02:18:40.680Z,99.35
2018-07-25T02:19:40.661Z,99.84
2018-07-25T02:20:40.646Z,99.64
2018-07-25T02:21:40.629Z,99.84
2018-07-25T02:22:40.612Z,99.74
2018-07-25T02:23:40.598Z,99.64
2018-07-25T02:24:40.582Z,99.93
2018-07-25T02:25:40.566Z,99.54
2018-07-25T02:26:40.549Z,99.84
2018-07-25T02:27:40.538Z,99.99
2018-07-25T02:28:40.518Z,99.93
2018-07-25T02:29:40.500Z,98.97
2018-07-25T02:30:40.485Z,99.69
2018-07-25T02:31:40.471Z,99.44
2018-07-25T02:32:40.452Z,99.99
2018-07-25T02:33:40.439Z,99.64
2018-07-25T02:34:40.419Z,99.78
2018-07-25T02:35:41.156Z,99.49
2018-07-25T02:36:40.393Z,99.59
2018-07-25T02:37:40.373Z,99.78
2018-07-25T02:38:40.356Z,98.92
2018-07-25T02:39:40.345Z,99.59
2018-07-25T02:40:40.324Z,99.99
2018-07-25T02:41:40.310Z,99.99
2018-07-25T02:42:40.291Z,99.99
2018-07-25T02:43:40.306Z,99.69
2018-07-25T02:44:40.261Z,99.59
2018-07-25T02:45:40.253Z,99.99
2018-07-25T02:46:40.227Z,99.59
2018-07-25T02:47:40.211Z,99.49
2018-07-25T02:48:40.195Z,99.59
2018-07-25T02:49:40.179Z,99.78
2018-07-25T02:50:40.162Z,99.99
2018-07-25T02:51:40.147Z,99.78
2018-07-25T02:52:40.132Z,99.59
2018-07-25T02:53:40.116Z,99.59
2018-07-25T02:54:40.099Z,99.49
2018-07-25T02:55:40.083Z,99.30
2018-07-25T02:56:40.066Z,99.78
2018-07-25T02:57:40.055Z,99.73
2018-07-25T02:58:40.037Z,99.69
2018-07-25T02:59:40.019Z,99.59
2018-07-25T03:00:40.003Z,99.54
2018-07-25T03:01:45.993Z,99.16
2018-07-25T03:02:39.969Z,99.78
2018-07-25T03:03:39.954Z,99.35
2018-07-25T03:04:39.938Z,99.35
2018-07-25T03:05:39.920Z,99.35
2018-07-25T03:06:39.904Z,99.44
2018-07-25T03:07:39.889Z,99.54
2018-07-25T03:08:39.873Z,99.35
2018-07-25T03:09:39.857Z,99.44
2018-07-25T03:10:39.840Z,99.26
2018-07-25T03:11:39.822Z,99.06
2018-07-25T03:12:39.807Z,98.96
2018-07-25T03:13:39.790Z,99.26
2018-07-25T03:14:39.774Z,98.96
2018-07-25T03:15:39.758Z,99.35
2018-07-25T03:16:39.803Z,98.96
2018-07-25T03:17:39.727Z,98.77
2018-07-25T03:18:39.709Z,98.96
2018-07-25T03:19:39.693Z,98.63
2018-07-25T03:20:39.678Z,98.58
2018-07-25T03:21:39.664Z,98.49
2018-07-25T03:22:39.643Z,98.00
2018-07-25T03:23:39.627Z,98.77
2018-07-25T03:24:39.616Z,98.58
2018-07-25T03:25:39.594Z,98.53
2018-07-25T03:26:39.580Z,98.19
2018-07-25T03:27:39.561Z,98.82
2018-07-25T03:28:39.546Z,98.14
2018-07-25T03:29:39.528Z,97.96
2018-07-25T03:30:39.511Z,97.47
2018-07-25T03:31:39.552Z,97.47
2018-07-25T03:32:39.480Z,98.05
2018-07-25T03:33:39.466Z,97.76
2018-07-25T03:34:39.446Z,98.14
2018-07-25T03:35:39.430Z,97.28
2018-07-25T03:36:39.412Z,97.47
2018-07-25T03:37:39.399Z,97.57
2018-07-25T03:38:39.380Z,97.38
2018-07-25T03:39:39.362Z,97.38
2018-07-25T03:40:39.346Z,97.19
2018-07-25T03:41:39.331Z,97.28
2018-07-25T03:42:39.313Z,97.38
2018-07-25T03:43:39.298Z,97.28
2018-07-25T03:44:39.280Z,98.05
2018-07-25T03:45:39.263Z,97.57
2018-07-25T03:46:39.247Z,96.51
2018-07-25T03:47:39.231Z,97.38
2018-07-25T03:48:39.214Z,96.90
2018-07-25T03:49:39.198Z,97.19
2018-07-25T03:50:39.185Z,97.38
2018-07-25T03:51:39.164Z,96.99
2018-07-25T03:52:39.148Z,96.90
2018-07-25T03:53:39.131Z,96.61
2018-07-25T03:54:39.118Z,96.70
2018-07-25T03:55:39.099Z,96.42
2018-07-25T03:56:39.083Z,96.13
2018-07-25T03:57:39.064Z,96.51
2018-07-25T03:58:39.046Z,96.51
2018-07-25T03:59:39.030Z,96.94
2018-07-25T04:00:39.014Z,96.51
2018-07-25T04:01:38.997Z,96.22
2018-07-25T04:02:39.032Z,96.22
2018-07-25T04:03:38.963Z,96.32
2018-07-25T04:04:38.948Z,95.45
2018-07-25T04:05:38.930Z,95.65
2018-07-25T04:06:38.914Z,95.84
2018-07-25T04:07:38.900Z,95.65
2018-07-25T04:08:38.881Z,95.45
2018-07-25T04:09:38.864Z,94.88
2018-07-25T04:10:38.848Z,95.17
2018-07-25T04:11:38.830Z,95.17
2018-07-25T04:12:38.815Z,94.88
2018-07-25T04:13:38.799Z,95.26
2018-07-25T04:14:38.782Z,94.88
2018-07-25T04:15:40.267Z,95.65
2018-07-25T04:16:38.754Z,94.78
2018-07-25T04:17:38.733Z,95.55
2018-07-25T04:18:38.715Z,95.26
2018-07-25T04:19:38.699Z,95.65
2018-07-25T04:20:38.682Z,95.17
2018-07-25T04:21:38.666Z,95.55
2018-07-25T04:22:38.651Z,95.17
2018-07-25T04:23:38.634Z,95.45
2018-07-25T04:24:38.625Z,95.55
2018-07-25T04:25:38.601Z,94.88
2018-07-25T04:26:38.584Z,94.88
2018-07-25T04:27:38.567Z,95.07
2018-07-25T04:28:38.551Z,94.68
2018-07-25T04:29:38.536Z,95.26
2018-07-25T04:30:38.521Z,94.98
2018-07-25T04:31:38.501Z,94.88
2018-07-25T04:32:38.486Z,94.68
2018-07-25T04:33:38.469Z,94.88
2018-07-25T04:34:38.486Z,94.88
2018-07-25T04:35:38.435Z,94.40
2018-07-25T04:36:38.418Z,94.49
2018-07-25T04:37:38.403Z,94.30
2018-07-25T04:38:38.385Z,93.63
2018-07-25T04:39:38.368Z,93.05
2018-07-25T04:40:38.353Z,93.44
2018-07-25T04:41:38.336Z,93.15
2018-07-25T04:42:38.382Z,93.05
2018-07-25T04:43:38.303Z,93.15
2018-07-25T04:44:38.287Z,92.67
2018-07-25T04:45:38.270Z,93.15
2018-07-25T04:46:38.333Z,93.63
2018-07-25T04:47:38.236Z,92.76
2018-07-25T04:48:38.221Z,92.61
2018-07-25T04:49:38.204Z,94.06
2018-07-25T04:50:38.188Z,93.77
2018-07-25T04:51:38.171Z,93.68
2018-07-25T04:52:38.155Z,93.87
2018-07-25T04:53:38.138Z,93.87
2018-07-25T04:54:38.127Z,92.71
2018-07-25T04:55:38.107Z,93.19
2018-07-25T04:56:38.090Z,92.91
2018-07-25T04:57:38.073Z,93.10
2018-07-25T04:58:38.058Z,92.61
2018-07-25T04:59:38.040Z,93.58
2018-07-25T05:00:38.026Z,93.58
2018-07-25T05:01:38.012Z,94.06
2018-07-25T05:02:39.492Z,94.35
2018-07-25T05:03:37.975Z,94.64
2018-07-25T05:04:37.959Z,94.25
2018-07-25T05:05:37.943Z,94.73
2018-07-25T05:06:37.927Z,94.92
2018-07-25T05:07:37.910Z,93.05
2018-07-25T05:08:38.646Z,93.91
2018-07-25T05:09:37.879Z,94.40
2018-07-25T05:10:37.863Z,94.30
2018-07-25T05:11:37.846Z,94.10
2018-07-25T05:12:37.877Z,94.78
2018-07-25T05:13:37.815Z,95.74
2018-07-25T05:14:37.797Z,95.26
2018-07-25T05:15:37.781Z,95.17
2018-07-25T05:16:37.766Z,95.45
2018-07-25T05:17:37.750Z,95.36
2018-07-25T05:18:37.732Z,95.50
2018-07-25T05:19:37.718Z,95.65
2018-07-25T05:20:37.702Z,95.79
2018-07-25T05:21:37.687Z,95.60
2018-07-25T05:22:37.669Z,95.89
2018-07-25T05:23:37.654Z,95.12
2018-07-25T05:24:37.640Z,95.40
2018-07-25T05:25:37.621Z,96.46
2018-07-25T05:26:37.606Z,95.79
2018-07-25T05:27:37.591Z,96.17
2018-07-25T05:28:37.574Z,95.69
2018-07-25T05:29:37.560Z,95.31
2018-07-25T05:30:37.543Z,95.40
2018-07-25T05:31:37.528Z,96.03
2018-07-25T05:32:37.512Z,95.94
2018-07-25T05:33:37.497Z,95.79
2018-07-25T05:34:37.483Z,96.22
2018-07-25T05:35:37.464Z,96.03
2018-07-25T05:36:37.449Z,95.64
2018-07-25T05:37:37.434Z,96.42
2018-07-25T05:38:37.417Z,96.51
2018-07-25T05:39:37.404Z,97.38
2018-07-25T05:40:37.385Z,95.74
2018-07-25T05:41:37.370Z,96.80
2018-07-25T05:42:37.355Z,96.42
2018-07-25T05:43:37.338Z,96.17
2018-07-25T05:44:37.323Z,96.94
2018-07-25T05:45:37.308Z,96.85
2018-07-25T05:46:38.794Z,96.85
2018-07-25T05:47:37.277Z,96.66
2018-07-25T05:48:37.261Z,96.75
2018-07-25T05:49:37.246Z,96.85
2018-07-25T05:50:37.229Z,96.46
2018-07-25T05:51:37.218Z,96.66
2018-07-25T05:52:37.200Z,96.75
2018-07-25T05:53:37.185Z,96.85
2018-07-25T05:54:37.167Z,96.80
2018-07-25T05:55:37.153Z,96.89
2018-07-25T05:56:37.201Z,97.09
2018-07-25T05:57:37.122Z,96.80
2018-07-25T05:58:37.151Z,96.89
2018-07-25T05:59:37.091Z,96.80
2018-07-25T06:00:37.076Z,96.32
2018-07-25T06:01:37.061Z,96.80
2018-07-25T06:02:37.046Z,96.51
2018-07-25T06:03:37.031Z,96.75
2018-07-25T06:04:37.015Z,96.99
2018-07-25T06:05:36.999Z,96.84
2018-07-25T06:06:36.985Z,96.75
2018-07-25T06:07:36.970Z,96.27
2018-07-25T06:08:36.997Z,97.04
2018-07-25T06:09:36.940Z,96.75
2018-07-25T06:10:36.923Z,96.46
2018-07-25T06:11:36.909Z,96.66
2018-07-25T06:12:36.895Z,96.94
2018-07-25T06:13:36.879Z,97.52
2018-07-25T06:14:36.867Z,97.24
2018-07-25T06:15:36.849Z,97.04
2018-07-25T06:16:36.835Z,97.42
2018-07-25T06:17:36.827Z,96.56
2018-07-25T06:18:36.810Z,96.94
2018-07-25T06:19:36.789Z,96.61
2018-07-25T06:20:36.849Z,96.99
2018-07-25T06:21:36.759Z,97.28
2018-07-25T06:22:36.742Z,96.89
2018-07-25T06:23:36.729Z,97.09
2018-07-25T06:24:38.966Z,97.38
2018-07-25T06:25:36.698Z,97.09
2018-07-25T06:26:36.683Z,97.19
2018-07-25T06:27:36.668Z,97.09
2018-07-25T06:28:36.654Z,97.67
2018-07-25T06:29:36.640Z,97.24
2018-07-25T06:30:38.126Z,96.75
2018-07-25T06:31:36.610Z,97.24
2018-07-25T06:32:36.594Z,97.33
2018-07-25T06:33:36.579Z,97.72
2018-07-25T06:34:36.565Z,97.33
2018-07-25T06:35:36.551Z,97.62
2018-07-25T06:36:38.038Z,97.04
2018-07-25T06:37:36.520Z,97.14
2018-07-25T06:38:36.509Z,97.47
2018-07-25T06:39:36.492Z,97.81
2018-07-25T06:40:36.477Z,97.77
2018-07-25T06:41:36.466Z,97.57
2018-07-25T06:42:37.200Z,97.19
2018-07-25T06:43:36.488Z,97.77
2018-07-25T06:44:36.418Z,97.67
2018-07-25T06:45:36.406Z,97.67
2018-07-25T06:46:36.389Z,97.77
2018-07-25T06:47:36.375Z,97.47
2018-07-25T06:48:36.360Z,96.99
2018-07-25T06:49:36.347Z,97.38
2018-07-25T06:50:36.352Z,97.19
2018-07-25T06:51:36.316Z,98.15
2018-07-25T06:52:36.303Z,96.51
2018-07-25T06:53:37.042Z,96.80
2018-07-25T06:54:36.272Z,96.70
2018-07-25T06:55:36.258Z,96.99
2018-07-25T06:56:36.244Z,97.33
2018-07-25T06:57:36.236Z,95.98
2018-07-25T06:58:36.214Z,96.46
2018-07-25T06:59:36.201Z,97.52
2018-07-25T07:00:36.187Z,97.14
2018-07-25T07:01:36.172Z,97.42
2018-07-25T07:02:36.158Z,96.56
2018-07-25T07:03:36.144Z,96.75
2018-07-25T07:04:36.133Z,96.07
2018-07-25T07:05:36.116Z,95.68
2018-07-25T07:06:36.172Z,96.46
2018-07-25T07:07:36.087Z,96.26
2018-07-25T07:08:36.071Z,96.17
2018-07-25T07:09:36.058Z,95.88
2018-07-25T07:10:36.068Z,96.41
2018-07-25T07:11:36.029Z,95.88
2018-07-25T07:12:36.016Z,95.88
2018-07-25T07:13:36.003Z,95.68
2018-07-25T07:14:35.985Z,95.59
2018-07-25T07:15:37.474Z,95.06
2018-07-25T07:16:35.957Z,95.06
2018-07-25T07:17:35.945Z,95.73
2018-07-25T07:18:35.930Z,96.60
2018-07-25T07:19:35.916Z,96.80
2018-07-25T07:20:35.901Z,96.51
2018-07-25T07:21:38.140Z,96.02
2018-07-25T07:22:35.872Z,95.93
2018-07-25T07:23:35.859Z,95.25
2018-07-25T07:24:35.846Z,95.44
2018-07-25T07:25:35.832Z,95.54
2018-07-25T07:26:35.818Z,95.78
2018-07-25T07:27:38.055Z,95.20
2018-07-25T07:28:35.790Z,95.29
2018-07-25T07:29:35.776Z,94.43
2018-07-25T07:30:35.763Z,94.13
2018-07-25T07:31:35.750Z,94.43
2018-07-25T07:32:35.734Z,94.04
2018-07-25T07:33:37.222Z,94.33
2018-07-25T07:34:35.706Z,95.29
2018-07-25T07:35:35.691Z,94.43
2018-07-25T07:36:35.715Z,93.65
2018-07-25T07:37:35.707Z,94.71
2018-07-25T07:38:35.649Z,93.70
2018-07-25T07:39:35.635Z,94.09
2018-07-25T07:40:35.623Z,93.99
2018-07-25T07:41:35.609Z,93.99
2018-07-25T07:42:35.595Z,93.89
2018-07-25T07:43:35.581Z,93.65
2018-07-25T07:44:35.568Z,93.46
2018-07-25T07:45:35.554Z,94.43
2018-07-25T07:46:35.540Z,94.52
2018-07-25T07:47:35.533Z,94.71
2018-07-25T07:48:35.511Z,93.79
2018-07-25T07:49:35.498Z,93.79
2018-07-25T07:50:35.484Z,93.12
2018-07-25T07:51:35.471Z,92.88
2018-07-25T07:52:35.456Z,93.99
2018-07-25T07:53:35.444Z,93.89
2018-07-25T07:54:35.678Z,93.41
2018-07-25T07:55:35.415Z,93.70
2018-07-25T07:56:35.404Z,93.94
2018-07-25T07:57:35.389Z,93.31
2018-07-25T07:58:35.374Z,92.44
2018-07-25T07:59:35.361Z,93.45
2018-07-25T08:00:35.348Z,92.73
2018-07-25T08:01:35.333Z,92.83
2018-07-25T08:02:35.320Z,93.70
2018-07-25T08:03:35.307Z,93.79
2018-07-25T08:04:35.293Z,93.89
2018-07-25T08:05:35.279Z,92.44
2018-07-25T08:06:35.266Z,92.58
2018-07-25T08:07:35.253Z,92.87
2018-07-25T08:08:35.239Z,92.00
2018-07-25T08:09:35.227Z,92.39
2018-07-25T08:10:35.216Z,92.19
2018-07-25T08:11:35.197Z,92.10
2018-07-25T08:12:35.185Z,92.77
2018-07-25T08:13:35.171Z,92.58
2018-07-25T08:14:35.156Z,92.58
2018-07-25T08:15:35.144Z,92.19
2018-07-25T08:16:35.135Z,91.90
2018-07-25T08:17:35.139Z,91.22
2018-07-25T08:18:35.103Z,91.13
2018-07-25T08:19:35.090Z,92.77
2018-07-25T08:20:35.828Z,93.16
2018-07-25T08:21:35.068Z,92.00
2018-07-25T08:22:35.050Z,91.61
2018-07-25T08:23:35.037Z,92.82
2018-07-25T08:24:35.024Z,92.72
2018-07-25T08:25:35.013Z,91.37
2018-07-25T08:26:34.997Z,91.27
2018-07-25T08:27:34.983Z,90.78
2018-07-25T08:28:34.969Z,90.59
2018-07-25T08:29:34.957Z,91.31
2018-07-25T08:30:34.941Z,90.16
2018-07-25T08:31:37.181Z,90.54
2018-07-25T08:32:34.915Z,91.02
2018-07-25T08:33:34.904Z,90.16
2018-07-25T08:34:35.010Z,90.64
2018-07-25T08:35:34.876Z,89.96
2018-07-25T08:36:34.863Z,90.16
2018-07-25T08:37:34.852Z,90.83
2018-07-25T08:38:34.835Z,91.71
2018-07-25T08:39:34.823Z,92.38
2018-07-25T08:40:34.813Z,92.09
2018-07-25T08:41:34.812Z,92.33
2018-07-25T08:42:34.784Z,91.36
2018-07-25T08:43:34.770Z,90.68
2018-07-25T08:44:34.763Z,90.64
2018-07-25T08:45:34.746Z,91.36
2018-07-25T08:46:34.731Z,90.78
2018-07-25T08:47:34.718Z,90.63
2018-07-25T08:48:34.705Z,89.66
2018-07-25T08:49:34.693Z,89.95
2018-07-25T08:50:34.679Z,89.47
2018-07-25T08:51:34.709Z,89.56
2018-07-25T08:52:34.732Z,90.05
2018-07-25T08:53:34.642Z,90.82
2018-07-25T08:54:34.630Z,90.24
2018-07-25T08:55:34.615Z,91.41
2018-07-25T08:56:34.603Z,91.60
2018-07-25T08:57:34.590Z,90.24
2018-07-25T08:58:34.576Z,89.51
2018-07-25T08:59:34.564Z,90.05
2018-07-25T09:00:34.608Z,88.93
2018-07-25T09:01:34.539Z,89.80
2018-07-25T09:02:34.525Z,89.80
2018-07-25T09:03:34.514Z,89.41
2018-07-25T09:04:36.003Z,88.64
2018-07-25T09:05:34.488Z,88.54
2018-07-25T09:06:34.541Z,88.64
2018-07-25T09:07:34.491Z,87.37
2018-07-25T09:08:34.452Z,88.34
2018-07-25T09:09:34.459Z,87.96
2018-07-25T09:10:34.426Z,87.47
2018-07-25T09:11:34.419Z,87.66
2018-07-25T09:12:34.404Z,86.50
2018-07-25T09:13:34.389Z,85.43
2018-07-25T09:14:34.375Z,85.72
2018-07-25T09:15:34.364Z,85.04
2018-07-25T09:16:34.351Z,84.94
2018-07-25T09:17:34.339Z,85.28
2018-07-25T09:18:34.326Z,85.57
2018-07-25T09:19:34.314Z,85.08
2018-07-25T09:20:34.305Z,84.01
2018-07-25T09:21:34.290Z,84.41
2018-07-25T09:22:34.277Z,84.21
2018-07-25T09:23:34.264Z,83.53
2018-07-25T09:24:34.252Z,84.01
2018-07-25T09:25:34.295Z,84.85
2018-07-25T09:26:34.226Z,85.28
2018-07-25T09:27:34.214Z,84.21
2018-07-25T09:28:34.202Z,85.08
2018-07-25T09:29:34.191Z,85.57
2018-07-25T09:30:34.178Z,86.25
2018-07-25T09:31:34.165Z,85.67
2018-07-25T09:32:34.153Z,86.10
2018-07-25T09:33:34.140Z,86.00
2018-07-25T09:34:34.129Z,82.99
2018-07-25T09:35:34.116Z,81.63
2018-07-25T09:36:34.104Z,81.82
2018-07-25T09:37:34.092Z,79.59
2018-07-25T09:38:34.079Z,79.88
2018-07-25T09:39:34.068Z,80.27
2018-07-25T09:40:34.054Z,78.94
2018-07-25T09:41:34.045Z,79.63
2018-07-25T09:42:34.031Z,79.04
2018-07-25T09:43:34.018Z,78.91
2018-07-25T09:44:34.015Z,77.39
2018-07-25T09:45:33.994Z,77.29
2018-07-25T09:46:34.049Z,74.08
2018-07-25T09:47:33.971Z,74.08
2018-07-25T09:48:33.958Z,72.27
2018-07-25T09:49:33.947Z,73.34
2018-07-25T09:50:33.934Z,74.32
2018-07-25T09:51:33.922Z,71.78
2018-07-25T09:52:35.424Z,70.91
2018-07-25T09:53:33.918Z,72.86
2018-07-25T09:54:33.888Z,74.32
2018-07-25T09:55:33.875Z,74.22
2018-07-25T09:56:33.865Z,73.73
2018-07-25T09:57:33.855Z,71.78
2018-07-25T09:58:34.593Z,70.13
2018-07-25T09:59:33.829Z,70.81
2018-07-25T10:00:33.816Z,71.59
2018-07-25T10:01:33.806Z,70.32
2018-07-25T10:02:33.818Z,70.91
2018-07-25T10:03:33.781Z,71.30
2018-07-25T10:04:33.771Z,72.08
2018-07-25T10:05:33.760Z,71.20
2018-07-25T10:06:33.747Z,70.42
2018-07-25T10:07:33.766Z,70.10
2018-07-25T10:08:33.724Z,68.84
2018-07-25T10:09:33.713Z,67.96
2018-07-25T10:10:33.715Z,69.26
2018-07-25T10:11:33.718Z,70.42
2018-07-25T10:12:33.677Z,70.72
2018-07-25T10:13:33.665Z,72.02
2018-07-25T10:14:34.408Z,72.02
2018-07-25T10:15:33.651Z,71.98
2018-07-25T10:16:33.631Z,73.83
2018-07-25T10:17:33.618Z,73.63
2018-07-25T10:18:33.609Z,72.41
2018-07-25T10:19:33.595Z,69.58
2018-07-25T10:20:33.620Z,70.75
2018-07-25T10:21:33.572Z,69.97
2018-07-25T10:22:33.585Z,70.36
2018-07-25T10:23:33.562Z,70.46
2018-07-25T10:24:33.537Z,70.07
2018-07-25T10:25:33.527Z,69.81
2018-07-25T10:26:33.514Z,69.48
2018-07-25T10:27:33.630Z,68.45
2018-07-25T10:28:33.491Z,68.16
2018-07-25T10:29:33.480Z,68.26
2018-07-25T10:30:33.469Z,67.83
2018-07-25T10:31:33.458Z,70.01
2018-07-25T10:32:33.445Z,70.40
2018-07-25T10:33:33.437Z,69.42
2018-07-25T10:34:33.441Z,70.30
2018-07-25T10:35:33.412Z,67.86
2018-07-25T10:36:34.152Z,69.94
2018-07-25T10:37:33.388Z,69.07
2018-07-25T10:38:33.381Z,65.75
2018-07-25T10:39:33.367Z,64.59
2018-07-25T10:40:33.355Z,60.69
2018-07-25T10:41:33.344Z,61.27
2018-07-25T10:42:33.401Z,62.38
2018-07-25T10:43:33.321Z,62.08
2018-07-25T10:44:33.310Z,62.47
2018-07-25T10:45:33.301Z,60.03
2018-07-25T10:46:33.288Z,57.70
2018-07-25T10:47:33.278Z,57.47
2018-07-25T10:48:33.267Z,57.54
2018-07-25T10:49:33.257Z,57.96
2018-07-25T10:50:33.244Z,58.15
2018-07-25T10:51:33.234Z,59.42
2018-07-25T10:52:33.222Z,58.18
2018-07-25T10:53:33.210Z,58.48
2018-07-25T10:54:33.201Z,57.70
2018-07-25T10:55:33.189Z,58.38
2018-07-25T10:56:33.177Z,57.99
2018-07-25T10:57:33.167Z,58.87
2018-07-25T10:58:33.156Z,57.40
2018-07-25T10:59:33.144Z,57.21
2018-07-25T11:00:33.135Z,57.21
2018-07-25T11:01:33.124Z,55.65
2018-07-25T11:02:33.112Z,57.60
2018-07-25T11:03:33.102Z,56.43
2018-07-25T11:04:33.092Z,55.46
2018-07-25T11:05:33.080Z,55.97
2018-07-25T11:06:33.069Z,56.07
2018-07-25T11:07:33.059Z,57.63
2018-07-25T11:08:33.049Z,56.36
2018-07-25T11:09:33.042Z,55.58
2018-07-25T11:10:33.026Z,55.58
2018-07-25T11:11:33.017Z,54.31
2018-07-25T11:12:33.004Z,54.21
2018-07-25T11:13:32.993Z,54.11
2018-07-25T11:14:32.981Z,51.48
2018-07-25T11:15:32.971Z,52.53
2018-07-25T11:16:33.159Z,54.48
2018-07-25T11:17:32.952Z,55.97
2018-07-25T11:18:35.192Z,55.09
2018-07-25T11:19:32.929Z,55.32
2018-07-25T11:20:32.918Z,54.21
2018-07-25T11:21:32.908Z,54.44
2018-07-25T11:22:32.897Z,52.78
2018-07-25T11:23:32.886Z,54.17
2018-07-25T11:24:32.876Z,52.80
2018-07-25T11:25:32.867Z,52.12
2018-07-25T11:26:32.858Z,51.14
2018-07-25T11:27:32.845Z,51.02
2018-07-25T11:28:32.834Z,52.48
2018-07-25T11:29:32.824Z,51.41
2018-07-25T11:30:32.817Z,50.82
2018-07-25T11:31:32.801Z,50.63
2018-07-25T11:32:32.812Z,50.07
2018-07-25T11:33:32.781Z,49.78
2018-07-25T11:34:32.771Z,49.80
2018-07-25T11:35:32.760Z,48.80
2018-07-25T11:36:32.749Z,48.22
2018-07-25T11:37:32.739Z,49.39
2018-07-25T11:38:32.729Z,48.68
2018-07-25T11:39:32.718Z,48.51
2018-07-25T11:40:32.707Z,48.90
2018-07-25T11:41:32.701Z,50.85
2018-07-25T11:42:32.687Z,51.92
2018-07-25T11:43:32.677Z,48.90
2018-07-25T11:44:32.667Z,48.97
2018-07-25T11:45:32.655Z,49.46
2018-07-25T11:46:32.644Z,48.00
2018-07-25T11:47:32.637Z,48.19
2018-07-25T11:48:32.625Z,49.00
2018-07-25T11:49:32.614Z,48.80
2018-07-25T11:50:32.606Z,50.43
2018-07-25T11:51:32.594Z,50.85
2018-07-25T11:52:32.583Z,51.34
2018-07-25T11:53:32.574Z,50.26
2018-07-25T11:54:32.561Z,51.24
2018-07-25T11:55:32.663Z,50.16
2018-07-25T11:56:32.541Z,51.80
2018-07-25T11:57:32.532Z,51.53
2018-07-25T11:58:32.520Z,50.95
2018-07-25T11:59:32.512Z,49.49
2018-07-25T12:00:32.501Z,49.58
2018-07-25T12:01:32.514Z,48.80
2018-07-25T12:02:32.480Z,49.49
2018-07-25T12:03:32.470Z,50.95
2018-07-25T12:04:32.459Z,49.98
2018-07-25T12:05:32.450Z,52.83
2018-07-25T12:06:34.005Z,50.39
2018-07-25T12:07:32.430Z,51.27
2018-07-25T12:08:32.420Z,51.56
2018-07-25T12:09:32.409Z,50.68
2018-07-25T12:10:32.398Z,50.29
2018-07-25T12:11:32.388Z,50.00
2018-07-25T12:12:33.883Z,51.56
2018-07-25T12:13:32.369Z,52.47
2018-07-25T12:14:32.362Z,51.66
2018-07-25T12:15:32.349Z,52.47
2018-07-25T12:16:32.342Z,51.59
2018-07-25T12:17:32.336Z,53.25
2018-07-25T12:18:33.070Z,52.39
2018-07-25T12:19:32.309Z,52.10
2018-07-25T12:20:32.300Z,50.05
2018-07-25T12:21:32.290Z,48.77
2018-07-25T12:22:32.279Z,48.19
2018-07-25T12:23:32.269Z,48.85
2018-07-25T12:24:32.260Z,51.78
2018-07-25T12:25:32.251Z,48.85
2018-07-25T12:26:32.261Z,48.93
2018-07-25T12:27:32.230Z,48.73
2018-07-25T12:28:32.220Z,48.83
2018-07-25T12:29:32.212Z,49.92
2018-07-25T12:30:32.202Z,50.02
2018-07-25T12:31:32.192Z,48.05
2018-07-25T12:32:32.185Z,48.14
2018-07-25T12:33:32.173Z,48.14
2018-07-25T12:34:32.163Z,49.02
2018-07-25T12:35:32.155Z,48.14
2018-07-25T12:36:32.143Z,49.32
2018-07-25T12:37:32.134Z,48.73
2018-07-25T12:38:32.125Z,47.48
2018-07-25T12:39:32.113Z,47.46
2018-07-25T12:40:32.107Z,47.36
2018-07-25T12:41:32.137Z,47.17
2018-07-25T12:42:32.085Z,47.75
2018-07-25T12:43:32.076Z,47.66
2018-07-25T12:44:34.318Z,47.77
2018-07-25T12:45:32.056Z,48.36
2018-07-25T12:46:32.066Z,47.50
2018-07-25T12:47:32.038Z,47.31
2018-07-25T12:48:32.070Z,47.09
2018-07-25T12:49:32.020Z,48.97
2018-07-25T12:50:32.007Z,50.93
2018-07-25T12:51:31.997Z,51.90
2018-07-25T12:52:31.989Z,52.00